createdAt,value
2022-09-06T00:00:00.516Z,46.4
2022-09-06T00:01:00.992Z,46.6
2022-09-06T00:02:00.361Z,46.5
2022-09-06T00:03:00.423Z,46.5
2022-09-06T00:04:00.393Z,46.8
2022-09-06T00:05:00.520Z,46.8
2022-09-06T00:06:00.384Z,46.9
2022-09-06T00:07:00.530Z,47.0
2022-09-06T00:08:00.473Z,47.0
2022-09-06T00:09:00.291Z,46.5
2022-09-06T00:10:00.341Z,46.1
2022-09-06T00:11:01.257Z,46.3
2022-09-06T00:12:00.313Z,46.3
2022-09-06T00:13:00.635Z,45.9
2022-09-06T00:14:00.406Z,46.0
2022-09-06T00:15:00.464Z,46.0
2022-09-06T00:16:00.425Z,46.2
2022-09-06T00:17:00.597Z,46.4
2022-09-06T00:18:00.365Z,46.6
2022-09-06T00:19:00.349Z,46.3
2022-09-06T00:20:00.383Z,46.7
2022-09-06T00:21:00.449Z,46.5
2022-09-06T00:22:00.331Z,46.5
2022-09-06T00:23:00.313Z,46.3
2022-09-06T00:24:00.532Z,46.2
2022-09-06T00:25:00.534Z,46.1
2022-09-06T00:26:00.345Z,46.1
2022-09-06T00:27:00.414Z,46.2
2022-09-06T00:28:00.287Z,46.3
2022-09-06T00:29:00.555Z,46.3
2022-09-06T00:30:00.408Z,46.5
2022-09-06T00:31:00.467Z,46.5
2022-09-06T00:32:00.579Z,46.4
2022-09-06T00:33:00.623Z,46.5
2022-09-06T00:34:00.397Z,46.5
2022-09-06T00:35:00.493Z,46.4
2022-09-06T00:36:00.799Z,46.2
2022-09-06T00:37:00.483Z,46.0
2022-09-06T00:38:00.882Z,45.7
2022-09-06T00:39:00.310Z,45.7
2022-09-06T00:40:00.572Z,45.6
2022-09-06T00:41:00.295Z,45.6
2022-09-06T00:42:00.489Z,45.5
2022-09-06T00:43:00.368Z,45.5
2022-09-06T00:44:00.314Z,45.4
2022-09-06T00:45:00.531Z,45.4
2022-09-06T00:46:00.439Z,45.5
2022-09-06T00:47:00.325Z,45.9
2022-09-06T00:48:00.331Z,45.7
2022-09-06T00:49:00.356Z,45.5
2022-09-06T00:50:00.286Z,45.4
2022-09-06T00:51:00.435Z,45.3
2022-09-06T00:52:00.623Z,45.3
2022-09-06T00:53:00.319Z,45.2
2022-09-06T00:54:00.294Z,45.1
2022-09-06T00:55:00.377Z,45.0
2022-09-06T00:56:00.369Z,44.8
2022-09-06T00:57:00.426Z,44.7
2022-09-06T00:58:00.385Z,44.6
2022-09-06T00:59:00.397Z,44.8
2022-09-06T01:00:00.287Z,44.6
2022-09-06T01:01:00.302Z,44.4
2022-09-06T01:02:00.633Z,44.4
2022-09-06T01:03:00.284Z,44.3
2022-09-06T01:04:00.317Z,44.2
2022-09-06T01:05:00.463Z,44.3
2022-09-06T01:06:00.292Z,44.3
2022-09-06T01:07:01.042Z,44.3
2022-09-06T01:08:00.294Z,44.2
2022-09-06T01:09:00.310Z,44.2
2022-09-06T01:10:00.471Z,44.1
2022-09-06T01:11:00.283Z,44.1
2022-09-06T01:12:00.295Z,44.2
2022-09-06T01:13:00.491Z,44.1
2022-09-06T01:14:00.304Z,44.1
2022-09-06T01:15:00.430Z,44.0
2022-09-06T01:16:00.375Z,44.0
2022-09-06T01:17:00.291Z,44.1
2022-09-06T01:18:00.295Z,44.1
2022-09-06T01:19:00.421Z,44.1
2022-09-06T01:20:00.296Z,44.1
2022-09-06T01:21:00.309Z,44.1
2022-09-06T01:22:00.344Z,44.1
2022-09-06T01:23:00.384Z,44.0
2022-09-06T01:24:00.344Z,43.9
2022-09-06T01:25:00.495Z,43.8
2022-09-06T01:26:00.380Z,43.6
2022-09-06T01:27:00.417Z,43.6
2022-09-06T01:28:00.370Z,43.5
2022-09-06T01:29:00.304Z,43.5
2022-09-06T01:30:00.293Z,43.6
2022-09-06T01:31:00.457Z,43.7
2022-09-06T01:32:00.282Z,43.7
2022-09-06T01:33:00.559Z,43.9
2022-09-06T01:34:00.318Z,43.9
2022-09-06T01:35:00.350Z,43.8
2022-09-06T01:36:00.414Z,43.6
2022-09-06T01:37:09.982Z,43.5
2022-09-06T01:38:00.354Z,43.4
2022-09-06T01:39:00.338Z,43.5
2022-09-06T01:40:00.499Z,43.6
2022-09-06T01:41:00.306Z,43.4
2022-09-06T01:42:00.375Z,43.3
2022-09-06T01:43:00.491Z,43.3
2022-09-06T01:44:00.425Z,43.1
2022-09-06T01:45:00.461Z,43.1
2022-09-06T01:46:00.386Z,43.1
2022-09-06T01:47:00.420Z,43.2
2022-09-06T01:48:00.342Z,43.3
2022-09-06T01:49:00.465Z,43.2
2022-09-06T01:50:00.304Z,43.0
2022-09-06T01:51:00.292Z,42.9
2022-09-06T01:52:00.286Z,42.9
2022-09-06T01:53:00.359Z,42.8
2022-09-06T01:54:00.315Z,42.8
2022-09-06T01:55:00.435Z,42.8
2022-09-06T01:56:00.366Z,42.8
2022-09-06T01:57:00.302Z,42.8
2022-09-06T01:58:00.296Z,42.6
2022-09-06T01:59:00.293Z,42.5
2022-09-06T02:00:00.354Z,42.6
2022-09-06T02:01:00.416Z,42.6
2022-09-06T02:02:00.385Z,42.6
2022-09-06T02:03:00.316Z,42.7
2022-09-06T02:04:00.305Z,42.9
2022-09-06T02:05:00.293Z,42.9
2022-09-06T02:06:00.347Z,42.9
2022-09-06T02:07:00.409Z,43.0
2022-09-06T02:08:00.930Z,43.4
2022-09-06T02:09:00.312Z,43.5
2022-09-06T02:10:00.306Z,43.6
2022-09-06T02:11:00.292Z,43.7
2022-09-06T02:12:00.307Z,43.7
2022-09-06T02:13:00.473Z,43.8
2022-09-06T02:14:00.387Z,43.9
2022-09-06T02:15:00.318Z,44.0
2022-09-06T02:16:00.362Z,44.1
2022-09-06T02:17:00.465Z,44.6
2022-09-06T02:18:00.425Z,44.6
2022-09-06T02:19:00.399Z,44.3
2022-09-06T02:20:00.292Z,44.4
2022-09-06T02:21:00.304Z,44.3
2022-09-06T02:22:00.451Z,44.3
2022-09-06T02:23:00.288Z,44.5
2022-09-06T02:24:00.378Z,44.4
2022-09-06T02:25:00.273Z,44.5
2022-09-06T02:26:00.318Z,44.5
2022-09-06T02:27:00.289Z,44.4
2022-09-06T02:28:00.307Z,44.6
2022-09-06T02:29:00.311Z,44.5
2022-09-06T02:30:00.379Z,44.2
2022-09-06T02:31:00.360Z,44.4
2022-09-06T02:32:00.385Z,44.1
2022-09-06T02:33:00.362Z,43.8
2022-09-06T02:34:00.334Z,43.9
2022-09-06T02:35:00.280Z,44.0
2022-09-06T02:36:00.378Z,44.0
2022-09-06T02:37:00.316Z,44.2
2022-09-06T02:38:00.394Z,44.2
2022-09-06T02:39:00.293Z,44.5
2022-09-06T02:40:00.405Z,44.4
2022-09-06T02:41:00.299Z,44.2
2022-09-06T02:42:00.298Z,44.1
2022-09-06T02:43:00.565Z,44.2
2022-09-06T02:44:00.383Z,44.1
2022-09-06T02:45:00.285Z,44.0
2022-09-06T02:46:00.427Z,43.9
2022-09-06T02:47:00.403Z,43.9
2022-09-06T02:48:00.338Z,43.8
2022-09-06T02:49:00.519Z,43.6
2022-09-06T02:50:00.298Z,43.7
2022-09-06T02:51:00.300Z,43.5
2022-09-06T02:52:00.349Z,43.6
2022-09-06T02:53:00.474Z,43.7
2022-09-06T02:54:00.417Z,43.8
2022-09-06T02:55:00.489Z,43.8
2022-09-06T02:56:00.357Z,43.9
2022-09-06T02:57:00.278Z,43.9
2022-09-06T02:58:00.286Z,43.9
2022-09-06T02:59:00.371Z,43.9
2022-09-06T03:00:00.284Z,43.7
2022-09-06T03:01:00.597Z,43.5
2022-09-06T03:02:00.414Z,43.3
2022-09-06T03:03:00.370Z,43.4
2022-09-06T03:04:00.315Z,43.8
2022-09-06T03:05:00.598Z,44.2
2022-09-06T03:06:00.322Z,44.8
2022-09-06T03:07:00.391Z,45.2
2022-09-06T03:08:00.626Z,45.5
2022-09-06T03:09:00.287Z,46.2
2022-09-06T03:10:00.331Z,46.2
2022-09-06T03:11:00.583Z,46.1
2022-09-06T03:12:00.401Z,46.6
2022-09-06T03:13:00.317Z,47.1
2022-09-06T03:14:00.456Z,46.9
2022-09-06T03:15:00.346Z,47.0
2022-09-06T03:16:00.438Z,46.9
2022-09-06T03:17:00.535Z,46.8
2022-09-06T03:18:00.397Z,46.6
2022-09-06T03:19:00.290Z,46.2
2022-09-06T03:20:00.306Z,46.0
2022-09-06T03:21:00.320Z,45.9
2022-09-06T03:22:00.374Z,45.7
2022-09-06T03:23:00.407Z,45.5
2022-09-06T03:24:00.292Z,45.3
2022-09-06T03:25:00.295Z,45.2
2022-09-06T03:26:00.637Z,45.0
2022-09-06T03:27:00.577Z,45.1
2022-09-06T03:28:00.310Z,45.7
2022-09-06T03:29:00.472Z,45.7
2022-09-06T03:30:00.302Z,45.5
2022-09-06T03:31:00.680Z,45.7
2022-09-06T03:32:00.385Z,45.8
2022-09-06T03:33:02.732Z,46.5
2022-09-06T03:34:00.366Z,46.6
2022-09-06T03:35:00.301Z,46.9
2022-09-06T03:36:00.297Z,46.7
2022-09-06T03:37:00.347Z,46.4
2022-09-06T03:38:00.465Z,46.0
2022-09-06T03:39:00.289Z,45.6
2022-09-06T03:40:00.485Z,45.3
2022-09-06T03:41:00.396Z,45.3
2022-09-06T03:42:00.342Z,45.6
2022-09-06T03:43:00.346Z,45.9
2022-09-06T03:44:00.479Z,46.0
2022-09-06T03:45:00.282Z,46.1
2022-09-06T03:46:00.403Z,46.0
2022-09-06T03:47:00.297Z,45.8
2022-09-06T03:48:00.471Z,45.5
2022-09-06T03:49:00.267Z,45.4
2022-09-06T03:50:00.299Z,45.4
2022-09-06T03:51:00.368Z,45.3
2022-09-06T03:52:00.264Z,44.9
2022-09-06T03:53:00.288Z,44.6
2022-09-06T03:54:00.383Z,44.6
2022-09-06T03:55:00.285Z,44.6
2022-09-06T03:56:00.292Z,44.5
2022-09-06T03:57:00.259Z,44.5
2022-09-06T03:58:00.261Z,44.2
2022-09-06T03:59:00.290Z,44.2
2022-09-06T04:00:00.413Z,44.2
2022-09-06T04:01:00.389Z,44.1
2022-09-06T04:02:00.303Z,44.2
2022-09-06T04:03:01.842Z,44.2
2022-09-06T04:04:00.326Z,44.2
2022-09-06T04:05:00.274Z,44.3
2022-09-06T04:06:00.359Z,44.2
2022-09-06T04:07:00.357Z,44.2
2022-09-06T04:08:00.295Z,44.2
2022-09-06T04:09:00.282Z,44.3
2022-09-06T04:10:00.364Z,44.3
2022-09-06T04:11:00.279Z,44.2
2022-09-06T04:12:00.365Z,44.1
2022-09-06T04:13:00.290Z,44.1
2022-09-06T04:14:00.513Z,44.0
2022-09-06T04:15:00.559Z,43.8
2022-09-06T04:16:00.393Z,43.9
2022-09-06T04:17:00.689Z,43.6
2022-09-06T04:18:00.365Z,43.3
2022-09-06T04:19:00.465Z,42.8
2022-09-06T04:20:00.459Z,42.5
2022-09-06T04:21:00.266Z,42.2
2022-09-06T04:22:00.477Z,41.9
2022-09-06T04:23:00.749Z,41.7
2022-09-06T04:24:00.501Z,41.3
2022-09-06T04:25:00.534Z,40.8
2022-09-06T04:26:00.488Z,40.2
2022-09-06T04:27:00.358Z,39.6
2022-09-06T04:28:00.393Z,39.3
2022-09-06T04:29:00.345Z,39.1
2022-09-06T04:30:00.273Z,39.1
2022-09-06T04:31:04.245Z,39.1
2022-09-06T04:32:00.299Z,39.2
2022-09-06T04:33:00.248Z,39.3
2022-09-06T04:34:00.298Z,39.3
2022-09-06T04:35:00.343Z,38.8
2022-09-06T04:36:00.285Z,38.6
2022-09-06T04:37:00.240Z,38.0
2022-09-06T04:38:00.347Z,37.9
2022-09-06T04:39:00.347Z,37.5
2022-09-06T04:40:00.586Z,37.5
2022-09-06T04:41:00.313Z,37.5
2022-09-06T04:42:00.261Z,37.2
2022-09-06T04:43:00.358Z,37.2
2022-09-06T04:44:00.284Z,36.8
2022-09-06T04:45:00.263Z,36.9
2022-09-06T04:46:00.393Z,36.9
2022-09-06T04:47:00.243Z,36.8
2022-09-06T04:48:00.275Z,36.6
2022-09-06T04:49:00.233Z,36.4
2022-09-06T04:50:00.270Z,36.4
2022-09-06T04:51:00.294Z,36.6
2022-09-06T04:52:00.400Z,36.7
2022-09-06T04:53:00.377Z,36.8
2022-09-06T04:54:00.277Z,36.5
2022-09-06T04:55:00.372Z,36.0
2022-09-06T04:56:00.412Z,36.2
2022-09-06T04:57:00.319Z,36.2
2022-09-06T04:58:00.353Z,33.7
2022-09-06T04:59:00.287Z,28.9
2022-09-06T05:00:00.309Z,26.1
2022-09-06T05:01:00.509Z,24.4
2022-09-06T05:02:00.466Z,22.8
2022-09-06T05:03:00.308Z,21.3
2022-09-06T05:04:00.292Z,22.4
2022-09-06T05:05:00.413Z,20.9
2022-09-06T05:06:00.270Z,20.8
2022-09-06T05:07:00.381Z,20.6
2022-09-06T05:08:00.306Z,22.9
2022-09-06T05:09:00.292Z,22.7
2022-09-06T05:10:00.335Z,23.1
2022-09-06T05:11:00.296Z,24.3
2022-09-06T05:12:00.296Z,21.7
2022-09-06T05:13:00.579Z,22.3
2022-09-06T05:14:00.314Z,22.4
2022-09-06T05:15:00.399Z,23.1
2022-09-06T05:16:00.394Z,20.3
2022-09-06T05:17:00.294Z,22.4
2022-09-06T05:18:00.351Z,18.6
2022-09-06T05:19:00.464Z,17.6
2022-09-06T05:20:00.346Z,16.8
2022-09-06T05:21:00.358Z,15.6
2022-09-06T05:22:00.355Z,15.1
2022-09-06T05:23:00.324Z,14.2
2022-09-06T05:24:00.376Z,13.6
2022-09-06T05:25:00.371Z,14.0
2022-09-06T05:26:00.303Z,12.7
2022-09-06T05:27:00.328Z,13.1
2022-09-06T05:28:00.336Z,15.7
2022-09-06T05:29:00.354Z,16.4
2022-09-06T05:30:00.427Z,13.8
2022-09-06T05:31:00.375Z,14.0
2022-09-06T05:32:00.441Z,12.0
2022-09-06T05:33:00.333Z,11.8
2022-09-06T05:34:00.374Z,12.9
2022-09-06T05:35:00.291Z,14.4
2022-09-06T05:36:00.293Z,12.0
2022-09-06T05:37:00.410Z,13.2
2022-09-06T05:38:00.310Z,15.2
2022-09-06T05:39:00.331Z,15.0
2022-09-06T05:40:00.495Z,13.6
2022-09-06T05:41:00.326Z,13.7
2022-09-06T05:42:00.310Z,13.1
2022-09-06T05:43:00.602Z,12.5
2022-09-06T05:44:00.317Z,15.0
2022-09-06T05:45:00.373Z,16.1
2022-09-06T05:46:00.402Z,16.0
2022-09-06T05:47:00.351Z,16.9
2022-09-06T05:48:00.385Z,15.9
2022-09-06T05:49:00.457Z,13.8
2022-09-06T05:50:00.307Z,16.7
2022-09-06T05:51:00.285Z,14.8
2022-09-06T05:52:00.304Z,14.8
2022-09-06T05:53:00.279Z,16.4
2022-09-06T05:54:00.305Z,17.2
2022-09-06T05:55:00.378Z,17.8
2022-09-06T05:56:00.280Z,16.1
2022-09-06T05:57:00.340Z,16.2
2022-09-06T05:58:00.424Z,15.4
2022-09-06T05:59:00.313Z,14.7
2022-09-06T06:00:00.323Z,16.6
2022-09-06T06:01:00.597Z,16.1
2022-09-06T06:02:03.237Z,16.7
2022-09-06T06:03:00.292Z,17.9
2022-09-06T06:04:00.299Z,16.4
2022-09-06T06:05:00.309Z,15.6
2022-09-06T06:06:00.280Z,14.6
2022-09-06T06:07:00.380Z,13.2
2022-09-06T06:08:00.279Z,12.4
2022-09-06T06:09:00.317Z,13.6
2022-09-06T06:10:00.341Z,14.3
2022-09-06T06:11:00.342Z,11.7
2022-09-06T06:12:00.395Z,12.8
2022-09-06T06:13:00.419Z,12.5
2022-09-06T06:14:00.374Z,13.1
2022-09-06T06:15:00.274Z,13.0
2022-09-06T06:16:00.406Z,13.8
2022-09-06T06:17:00.582Z,12.9
2022-09-06T06:18:00.284Z,12.2
2022-09-06T06:19:00.389Z,12.6
2022-09-06T06:20:00.374Z,11.4
2022-09-06T06:21:00.306Z,12.3
2022-09-06T06:22:00.293Z,14.1
2022-09-06T06:23:00.353Z,12.3
2022-09-06T06:24:00.345Z,11.1
2022-09-06T06:25:00.383Z,10.8
2022-09-06T06:26:00.312Z,11.4
2022-09-06T06:27:00.289Z,10.0
2022-09-06T06:28:00.310Z,9.8
2022-09-06T06:29:00.287Z,9.9
2022-09-06T06:30:00.285Z,9.4
2022-09-06T06:31:00.403Z,9.6
2022-09-06T06:32:00.461Z,9.4
2022-09-06T06:33:00.363Z,8.8
2022-09-06T06:34:00.331Z,11.5
2022-09-06T06:35:00.394Z,11.3
2022-09-06T06:36:00.355Z,10.3
2022-09-06T06:37:00.527Z,9.5
2022-09-06T06:38:00.335Z,10.1
2022-09-06T06:39:00.318Z,9.9
2022-09-06T06:40:00.447Z,9.1
2022-09-06T06:41:05.798Z,9.0
2022-09-06T06:42:00.275Z,9.0
2022-09-06T06:43:00.479Z,10.2
2022-09-06T06:44:00.276Z,9.2
2022-09-06T06:45:00.357Z,7.9
2022-09-06T06:46:00.388Z,9.3
2022-09-06T06:47:00.289Z,10.9
2022-09-06T06:48:00.314Z,10.3
2022-09-06T06:49:00.406Z,8.8
2022-09-06T06:50:00.318Z,9.1
2022-09-06T06:51:00.306Z,9.7
2022-09-06T06:52:00.281Z,8.6
2022-09-06T06:53:00.296Z,8.3
2022-09-06T06:54:00.304Z,7.7
2022-09-06T06:55:00.436Z,7.1
2022-09-06T06:56:00.312Z,6.8
2022-09-06T06:57:00.354Z,6.8
2022-09-06T06:58:00.404Z,7.7
2022-09-06T06:59:00.347Z,9.3
2022-09-06T07:00:00.290Z,7.4
2022-09-06T07:01:00.498Z,6.9
2022-09-06T07:02:00.417Z,6.5
2022-09-06T07:03:00.361Z,7.4
2022-09-06T07:04:00.298Z,6.6
2022-09-06T07:05:00.684Z,6.2
2022-09-06T07:06:13.741Z,7.3
2022-09-06T07:07:30.609Z,9.2
2022-09-06T07:08:00.318Z,9.1
2022-09-06T07:09:00.401Z,10.4
2022-09-06T07:11:00.297Z,9.9
2022-09-06T07:12:00.282Z,9.9
2022-09-06T07:13:00.366Z,8.1
2022-09-06T07:14:00.338Z,7.2
2022-09-06T07:15:00.421Z,6.3
2022-09-06T07:16:00.353Z,6.0
2022-09-06T07:17:00.298Z,6.0
2022-09-06T07:18:00.293Z,6.0
2022-09-06T07:19:00.636Z,6.9
2022-09-06T07:20:16.168Z,6.2
2022-09-06T07:22:02.908Z,5.5
2022-09-06T07:24:08.416Z,5.4
2022-09-06T07:25:00.366Z,7.4
2022-09-06T07:26:00.303Z,6.6
2022-09-06T07:28:03.893Z,5.9
2022-09-06T07:29:00.390Z,6.0
2022-09-06T07:30:00.272Z,6.2
2022-09-06T07:31:00.359Z,6.5
2022-09-06T07:32:12.950Z,5.9
2022-09-06T07:33:00.334Z,5.7
2022-09-06T07:34:00.435Z,7.8
2022-09-06T07:35:00.367Z,10.5
2022-09-06T07:36:00.299Z,8.2
2022-09-06T07:37:00.309Z,7.7
2022-09-06T07:38:00.313Z,7.5
2022-09-06T07:39:00.416Z,7.1
2022-09-06T07:40:00.509Z,7.1
2022-09-06T07:41:00.293Z,6.9
2022-09-06T07:42:00.300Z,6.6
2022-09-06T07:43:00.304Z,6.3
2022-09-06T07:44:00.318Z,6.4
2022-09-06T07:45:00.310Z,6.7
2022-09-06T07:46:00.352Z,6.8
2022-09-06T07:48:00.324Z,6.3
2022-09-06T07:49:00.392Z,5.8
2022-09-06T07:51:00.381Z,5.4
2022-09-06T07:52:00.480Z,5.2
2022-09-06T07:53:09.594Z,5.2
2022-09-06T07:54:28.763Z,5.2
2022-09-06T07:55:00.341Z,7.9
2022-09-06T07:56:00.327Z,6.3
2022-09-06T07:57:00.382Z,5.7
2022-09-06T07:58:00.291Z,5.3
2022-09-06T07:59:00.295Z,5.4
2022-09-06T08:00:00.435Z,5.5
2022-09-06T08:01:00.339Z,5.4
2022-09-06T08:02:00.375Z,5.5
2022-09-06T08:04:00.352Z,5.7
2022-09-06T08:05:00.522Z,5.7
2022-09-06T08:09:00.504Z,6.0
2022-09-06T08:10:00.357Z,6.2
2022-09-06T08:11:00.343Z,6.4
2022-09-06T08:12:00.378Z,6.0
2022-09-06T08:13:00.358Z,5.8
2022-09-06T08:14:00.378Z,5.5
2022-09-06T08:15:00.495Z,5.7
2022-09-06T08:16:00.469Z,5.7
2022-09-06T08:17:00.316Z,5.7
2022-09-06T08:18:00.312Z,5.7
2022-09-06T08:19:00.304Z,5.6
2022-09-06T08:20:00.325Z,5.6
2022-09-06T08:21:00.300Z,5.5
2022-09-06T08:22:00.504Z,5.6
2022-09-06T08:23:00.336Z,5.5
2022-09-06T08:24:00.311Z,5.7
2022-09-06T08:25:00.311Z,5.7
2022-09-06T08:26:00.323Z,5.6
2022-09-06T08:27:00.287Z,5.7
2022-09-06T08:28:00.546Z,5.8
2022-09-06T08:29:00.449Z,5.9
2022-09-06T08:30:00.657Z,7.6
2022-09-06T08:31:00.351Z,8.0
2022-09-06T08:32:00.490Z,7.3
2022-09-06T08:33:00.297Z,8.3
2022-09-06T08:34:00.428Z,10.9
2022-09-06T08:35:00.404Z,12.7
2022-09-06T08:36:00.299Z,12.2
2022-09-06T08:37:00.334Z,10.0
2022-09-06T08:38:00.387Z,9.0
2022-09-06T08:39:00.298Z,8.4
2022-09-06T08:40:00.411Z,7.7
2022-09-06T08:41:00.313Z,7.3
2022-09-06T08:42:00.316Z,7.5
2022-09-06T08:43:00.324Z,8.5
2022-09-06T08:45:00.505Z,10.3
2022-09-06T08:46:00.375Z,8.9
2022-09-06T08:47:00.392Z,8.5
2022-09-06T08:48:00.321Z,9.4
2022-09-06T08:49:00.301Z,10.0
2022-09-06T08:50:00.312Z,9.1
2022-09-06T08:51:00.395Z,8.6
2022-09-06T08:52:00.349Z,8.4
2022-09-06T08:53:16.252Z,8.4
2022-09-06T08:54:00.332Z,8.4
2022-09-06T08:55:00.373Z,8.0
2022-09-06T08:56:00.382Z,7.9
2022-09-06T08:57:00.350Z,7.9
2022-09-06T08:58:00.315Z,7.8
2022-09-06T08:59:00.352Z,7.8
2022-09-06T09:00:00.447Z,7.8
2022-09-06T09:01:00.471Z,8.2
2022-09-06T09:02:00.483Z,8.4
2022-09-06T09:03:00.274Z,8.6
2022-09-06T09:04:00.307Z,8.4
2022-09-06T09:05:00.282Z,8.3
2022-09-06T09:06:00.378Z,8.2
2022-09-06T09:07:00.310Z,8.1
2022-09-06T09:08:00.293Z,8.0
2022-09-06T09:09:00.279Z,8.0
2022-09-06T09:10:00.328Z,7.9
2022-09-06T09:11:00.369Z,8.1
2022-09-06T09:12:00.374Z,8.2
2022-09-06T09:13:00.414Z,8.4
2022-09-06T09:14:00.328Z,8.6
2022-09-06T09:15:00.397Z,8.8
2022-09-06T09:16:00.428Z,8.9
2022-09-06T09:17:00.358Z,9.1
2022-09-06T09:18:00.308Z,9.2
2022-09-06T09:19:00.324Z,9.4
2022-09-06T09:20:00.532Z,9.4
2022-09-06T09:21:00.460Z,9.2
2022-09-06T09:22:00.331Z,9.3
2022-09-06T09:23:00.350Z,9.5
2022-09-06T09:24:00.300Z,9.6
2022-09-06T09:25:00.277Z,9.8
2022-09-06T09:26:00.676Z,10.0
2022-09-06T09:27:00.315Z,10.1
2022-09-06T09:28:00.314Z,10.2
2022-09-06T09:29:00.323Z,10.2
2022-09-06T09:31:00.361Z,10.3
2022-09-06T09:32:00.509Z,10.5
2022-09-06T09:33:00.299Z,10.7
2022-09-06T09:34:00.354Z,11.0
2022-09-06T09:35:00.303Z,11.1
2022-09-06T09:36:00.322Z,11.4
2022-09-06T09:38:04.904Z,12.9
2022-09-06T09:39:00.388Z,13.1
2022-09-06T09:40:00.446Z,13.2
2022-09-06T09:41:00.279Z,13.6
2022-09-06T09:42:00.533Z,13.9
2022-09-06T09:43:00.325Z,14.0
2022-09-06T09:44:04.462Z,14.1
2022-09-06T09:45:00.480Z,14.1
2022-09-06T09:46:00.316Z,14.3
2022-09-06T09:47:00.371Z,14.2
2022-09-06T09:48:00.341Z,14.7
2022-09-06T09:49:00.381Z,14.9
2022-09-06T09:50:00.485Z,14.9
2022-09-06T09:51:00.298Z,15.1
2022-09-06T09:52:00.313Z,15.3
2022-09-06T09:53:00.314Z,15.5
2022-09-06T09:54:00.428Z,15.5
2022-09-06T09:55:00.343Z,15.4
2022-09-06T09:56:00.473Z,15.8
2022-09-06T09:57:00.433Z,15.9
2022-09-06T09:58:00.320Z,16.2
2022-09-06T09:59:00.610Z,16.4
2022-09-06T10:00:00.389Z,16.5
2022-09-06T10:01:00.545Z,16.8
2022-09-06T10:02:00.520Z,16.8
2022-09-06T10:03:00.445Z,16.9
2022-09-06T10:05:00.334Z,17.8
2022-09-06T10:06:02.717Z,18.2
2022-09-06T10:08:00.396Z,18.8
2022-09-06T10:09:00.453Z,18.9
2022-09-06T10:10:00.323Z,18.9
2022-09-06T10:11:00.295Z,18.8
2022-09-06T10:12:00.444Z,18.9
2022-09-06T10:13:00.404Z,19.0
2022-09-06T10:14:00.464Z,19.0
2022-09-06T10:15:02.419Z,19.1
2022-09-06T10:16:00.438Z,19.1
2022-09-06T10:17:00.429Z,19.1
2022-09-06T10:18:01.238Z,19.1
2022-09-06T10:19:00.396Z,19.6
2022-09-06T10:20:00.324Z,19.8
2022-09-06T10:21:00.407Z,19.8
2022-09-06T10:22:00.446Z,19.8
2022-09-06T10:23:00.312Z,19.9
2022-09-06T10:24:27.942Z,20.0
2022-09-06T10:25:00.369Z,20.0
2022-09-06T10:26:00.371Z,20.1
2022-09-06T10:27:00.708Z,20.3
2022-09-06T10:28:11.986Z,20.3
2022-09-06T10:29:00.455Z,20.0
2022-09-06T10:30:00.424Z,19.8
2022-09-06T10:31:00.415Z,19.9
2022-09-06T10:32:00.373Z,20.0
2022-09-06T10:33:00.426Z,19.9
2022-09-06T10:34:00.312Z,19.8
2022-09-06T10:35:00.415Z,19.8
2022-09-06T10:36:00.331Z,19.8
2022-09-06T10:37:00.306Z,19.8
2022-09-06T10:38:00.310Z,19.9
2022-09-06T10:39:03.905Z,20.3
2022-09-06T10:40:00.489Z,20.6
2022-09-06T10:41:00.402Z,20.4
2022-09-06T10:42:00.490Z,20.4
2022-09-06T10:43:00.458Z,20.7
2022-09-06T10:44:00.293Z,21.1
2022-09-06T10:45:00.471Z,21.2
2022-09-06T10:46:00.311Z,20.8
2022-09-06T10:47:00.293Z,20.8
2022-09-06T10:48:00.300Z,20.7
2022-09-06T10:49:00.405Z,20.4
2022-09-06T10:50:00.351Z,20.4
2022-09-06T10:51:00.401Z,20.3
2022-09-06T10:52:00.300Z,20.3
2022-09-06T10:53:00.296Z,20.6
2022-09-06T10:54:00.357Z,20.8
2022-09-06T10:55:00.336Z,20.3
2022-09-06T10:56:01.557Z,20.1
2022-09-06T10:57:00.418Z,20.0
2022-09-06T11:00:00.324Z,19.7
2022-09-06T11:01:00.343Z,19.8
2022-09-06T11:02:00.492Z,19.8
2022-09-06T11:04:04.437Z,19.7
2022-09-06T11:06:00.416Z,20.0
2022-09-06T11:07:00.342Z,20.1
2022-09-06T11:09:00.461Z,20.3
2022-09-06T11:10:00.355Z,20.0
2022-09-06T11:11:00.436Z,19.8
2022-09-06T11:12:00.323Z,19.6
2022-09-06T11:13:00.364Z,19.6
2022-09-06T11:14:04.969Z,19.5
2022-09-06T11:15:00.339Z,19.5
2022-09-06T11:16:00.698Z,19.6
2022-09-06T11:17:00.591Z,19.8
2022-09-06T11:18:00.593Z,19.9
2022-09-06T11:19:00.514Z,20.0
2022-09-06T11:20:00.585Z,20.2
2022-09-06T11:21:00.515Z,20.2
2022-09-06T11:22:00.791Z,20.3
2022-09-06T11:23:00.585Z,20.4
2022-09-06T11:24:00.308Z,20.1
2022-09-06T11:25:00.470Z,20.2
2022-09-06T11:26:00.337Z,20.3
2022-09-06T11:27:00.360Z,20.2
2022-09-06T11:28:00.393Z,20.2
2022-09-06T11:29:00.430Z,20.0
2022-09-06T11:30:00.594Z,20.0
2022-09-06T11:31:00.393Z,20.1
2022-09-06T11:33:00.312Z,20.4
2022-09-06T11:34:01.289Z,20.6
2022-09-06T11:35:00.304Z,20.4
2022-09-06T11:36:00.392Z,20.7
2022-09-06T11:37:00.291Z,20.6
2022-09-06T11:38:00.285Z,20.8
2022-09-06T11:39:00.290Z,20.8
2022-09-06T11:40:29.792Z,21.0
2022-09-06T11:41:00.383Z,21.3
2022-09-06T11:42:00.361Z,21.4
2022-09-06T11:43:00.417Z,21.7
2022-09-06T11:44:00.291Z,21.7
2022-09-06T11:45:00.333Z,21.8
2022-09-06T11:46:00.401Z,21.8
2022-09-06T11:47:00.286Z,21.8
2022-09-06T11:48:00.405Z,21.6
2022-09-06T11:49:00.394Z,21.4
2022-09-06T11:50:00.307Z,21.5
2022-09-06T11:51:00.333Z,21.4
2022-09-06T11:52:00.439Z,21.2
2022-09-06T11:53:00.452Z,21.0
2022-09-06T11:54:00.470Z,21.1
2022-09-06T11:55:00.345Z,21.1
2022-09-06T11:56:00.406Z,21.3
2022-09-06T11:57:00.331Z,21.0
2022-09-06T11:58:00.480Z,21.0
2022-09-06T11:59:00.457Z,21.0
2022-09-06T12:00:00.429Z,20.9
2022-09-06T12:01:00.367Z,20.8
2022-09-06T12:02:00.308Z,20.7
2022-09-06T12:05:00.851Z,20.6
2022-09-06T12:06:00.385Z,20.5
2022-09-06T12:07:00.314Z,20.7
2022-09-06T12:08:00.304Z,20.4
2022-09-06T12:09:00.324Z,20.3
2022-09-06T12:10:00.465Z,19.9
2022-09-06T12:11:00.379Z,19.8
2022-09-06T12:12:00.312Z,19.7
2022-09-06T12:13:00.405Z,19.5
2022-09-06T12:14:00.351Z,19.4
2022-09-06T12:15:00.282Z,19.1
2022-09-06T12:16:00.436Z,18.9
2022-09-06T12:17:00.310Z,19.1
2022-09-06T12:18:00.318Z,19.2
2022-09-06T12:19:00.332Z,19.3
2022-09-06T12:20:00.330Z,19.3
2022-09-06T12:21:00.318Z,18.9
2022-09-06T12:22:00.464Z,19.0
2022-09-06T12:23:00.362Z,18.5
2022-09-06T12:24:00.428Z,18.7
2022-09-06T12:25:00.374Z,19.0
2022-09-06T12:26:00.423Z,18.8
2022-09-06T12:27:00.414Z,18.4
2022-09-06T12:28:00.430Z,18.3
2022-09-06T12:29:00.430Z,18.0
2022-09-06T12:30:00.694Z,18.2
2022-09-06T12:31:00.399Z,18.3
2022-09-06T12:32:00.412Z,18.7
2022-09-06T12:33:00.367Z,18.8
2022-09-06T12:34:00.421Z,19.0
2022-09-06T12:36:01.376Z,19.0
2022-09-06T12:37:00.386Z,18.7
2022-09-06T12:38:00.302Z,18.8
2022-09-06T12:39:00.332Z,18.6
2022-09-06T12:40:00.420Z,18.8
2022-09-06T12:41:00.569Z,19.3
2022-09-06T12:42:00.332Z,19.6
2022-09-06T12:43:00.293Z,20.0
2022-09-06T12:44:00.396Z,20.2
2022-09-06T12:45:00.315Z,20.4
2022-09-06T12:46:00.488Z,20.7
2022-09-06T12:47:00.436Z,20.9
2022-09-06T12:48:00.315Z,20.9
2022-09-06T12:49:00.363Z,21.2
2022-09-06T12:50:00.318Z,21.4
2022-09-06T12:51:00.357Z,21.4
2022-09-06T12:52:00.324Z,21.7
2022-09-06T12:53:00.583Z,21.7
2022-09-06T12:54:00.297Z,21.8
2022-09-06T12:55:00.487Z,21.8
2022-09-06T12:56:00.376Z,21.9
2022-09-06T12:57:00.677Z,22.1
2022-09-06T12:58:00.353Z,22.2
2022-09-06T12:59:00.409Z,22.2
2022-09-06T13:00:00.416Z,22.2
2022-09-06T13:01:00.352Z,22.2
2022-09-06T13:02:00.529Z,22.3
2022-09-06T13:03:00.587Z,22.3
2022-09-06T13:04:00.423Z,22.2
2022-09-06T13:05:00.419Z,22.0
2022-09-06T13:06:00.337Z,21.9
2022-09-06T13:07:00.334Z,21.8
2022-09-06T13:08:00.405Z,21.9
2022-09-06T13:09:00.292Z,21.9
2022-09-06T13:10:00.309Z,21.9
2022-09-06T13:11:00.305Z,21.9
2022-09-06T13:12:00.300Z,21.8
2022-09-06T13:13:00.302Z,21.7
2022-09-06T13:14:00.375Z,21.3
2022-09-06T13:15:00.311Z,21.9
2022-09-06T13:16:00.357Z,22.6
2022-09-06T13:17:00.306Z,22.1
2022-09-06T13:18:00.327Z,22.2
2022-09-06T13:19:00.321Z,22.4
2022-09-06T13:20:00.471Z,21.7
2022-09-06T13:21:00.324Z,21.8
2022-09-06T13:22:00.463Z,21.5
2022-09-06T13:23:00.338Z,21.8
2022-09-06T13:24:00.294Z,21.7
2022-09-06T13:25:00.400Z,21.6
2022-09-06T13:26:00.330Z,21.5
2022-09-06T13:27:00.324Z,21.6
2022-09-06T13:28:00.519Z,22.0
2022-09-06T13:29:00.465Z,22.2
2022-09-06T13:30:00.293Z,22.7
2022-09-06T13:31:00.385Z,23.3
2022-09-06T13:32:00.388Z,23.9
2022-09-06T13:33:00.367Z,23.9
2022-09-06T13:34:00.478Z,24.2
2022-09-06T13:35:00.296Z,24.5
2022-09-06T13:36:00.313Z,24.3
2022-09-06T13:37:00.386Z,24.5
2022-09-06T13:38:00.330Z,24.6
2022-09-06T13:39:00.307Z,24.8
2022-09-06T13:40:00.472Z,25.1
2022-09-06T13:41:12.448Z,25.2
2022-09-06T13:42:00.437Z,25.4
2022-09-06T13:43:00.300Z,25.5
2022-09-06T13:44:00.299Z,25.6
2022-09-06T13:45:02.347Z,25.5
2022-09-06T13:46:00.586Z,25.6
2022-09-06T13:47:00.319Z,25.9